Terminal Aerodrome Forecast
Issued by NWS

Home | Current Version | Previous Version | Text Only | Print | Product List | Glossary On
Versions: 1 2 3 4 5 6 7 8 9 10 11 12 13 14 15 16 17 18 19 20 21 22 23 24 25 26 27 28 29
000
FTUS44 KHGX 281735
TAFLBX
TAF
KLBX 281735Z 2818/2918 26008KT P6SM SKC
     FM281930 20012G18KT P6SM SKC
     FM290200 18005KT P6SM SKC
     FM291300 19012KT P6SM SCT015=

USA.gov is the U.S. government's official web portal to all federal, state and local government web resources and services.